Time;durP1;ratioP1;P1;durP2;ratioP2;P2;SDS_P1;SDS_P2;PMS_P1;PMS_P2;Temp;Humidity;BMP_temperature;BMP_pressure;BME280_temperature;BME280_humidity;BME280_pressure;Samples;Min_cycle;Max_cycle;Signal;HPM_P1;HPM_P2
2023/09/14 00:02:11;;;;;;;46.43;43.97;;;9.20;99.90;;;;;;5016030;28;20076;-70
2023/09/14 00:04:36;;;;;;;37.63;35.42;;;9.20;99.90;;;;;;5032755;28;20714;-70
2023/09/14 00:07:02;;;;;;;38.43;35.83;;;9.20;99.90;;;;;;5031793;28;20128;-70
2023/09/14 00:09:28;;;;;;;45.07;42.63;;;9.20;99.90;;;;;;5016323;28;20524;-70
2023/09/14 00:11:53;;;;;;;50.83;48.40;;;9.20;99.90;;;;;;5037518;28;20075;-70
2023/09/14 00:14:19;;;;;;;41.23;39.30;;;9.10;99.90;;;;;;5035385;28;20090;-70
2023/09/14 00:16:46;;;;;;;49.20;46.83;;;9.10;99.90;;;;;;5051354;28;20029;-70
2023/09/14 00:19:12;;;;;;;52.55;50.17;;;9.10;99.90;;;;;;5049199;28;20044;-70
2023/09/14 00:21:39;;;;;;;44.87;42.20;;;9.10;99.90;;;;;;5048800;28;20045;-70
2023/09/14 00:24:05;;;;;;;41.47;39.38;;;9.00;99.90;;;;;;5050386;28;20049;-70
2023/09/14 00:26:31;;;;;;;50.00;47.40;;;9.10;99.90;;;;;;5048291;28;20037;-71
2023/09/14 00:28:56;;;;;;;42.87;40.83;;;9.10;99.90;;;;;;5070978;28;20048;-70
2023/09/14 00:31:22;;;;;;;49.73;47.30;;;9.00;99.90;;;;;;5048400;28;20063;-70
2023/09/14 00:33:48;;;;;;;48.20;45.90;;;9.10;99.90;;;;;;5050544;28;20037;-70
2023/09/14 00:36:13;;;;;;;46.60;44.33;;;9.10;99.90;;;;;;5032657;28;20079;-70
2023/09/14 00:38:39;;;;;;;34.20;32.40;;;9.10;99.90;;;;;;5051064;28;20108;-70
2023/09/14 00:41:05;;;;;;;44.83;42.30;;;9.10;99.90;;;;;;5050476;28;20044;-70
2023/09/14 00:43:30;;;;;;;45.30;42.90;;;9.00;99.90;;;;;;5049902;28;20059;-70
2023/09/14 00:45:56;;;;;;;40.37;38.27;;;9.00;99.90;;;;;;5032362;28;20087;-70
2023/09/14 00:48:22;;;;;;;54.53;52.03;;;9.00;99.90;;;;;;5033482;28;20055;-70
2023/09/14 00:50:48;;;;;;;48.77;46.37;;;9.00;99.90;;;;;;5050034;28;20128;-70
2023/09/14 00:53:15;;;;;;;45.55;43.35;;;8.90;99.90;;;;;;5050336;28;20040;-71
2023/09/14 00:55:43;;;;;;;43.50;41.33;;;8.90;99.90;;;;;;5050189;28;20481;-70
2023/09/14 00:58:14;;;;;;;49.05;46.75;;;8.90;99.90;;;;;;5049727;28;20065;-70
2023/09/14 01:00:41;;;;;;;51.00;48.67;;;8.90;99.90;;;;;;5049505;28;20037;-70
2023/09/14 01:03:07;;;;;;;47.30;44.95;;;8.90;99.90;;;;;;5049890;28;20095;-70
2023/09/14 01:05:34;;;;;;;45.10;43.13;;;8.80;99.90;;;;;;5049237;28;20508;-70
2023/09/14 01:08:00;;;;;;;44.65;42.40;;;8.80;99.90;;;;;;5049821;28;20464;-70
2023/09/14 01:10:26;;;;;;;45.17;43.07;;;8.80;99.90;;;;;;5049788;28;20041;-70
2023/09/14 01:12:52;;;;;;;42.37;40.27;;;8.70;99.90;;;;;;5034284;28;20044;-70
2023/09/14 01:15:26;;;;;;;40.58;38.55;;;8.70;99.90;;;;;;5047821;28;20505;-70
2023/09/14 01:18:11;;;;;;;41.75;39.85;;;8.70;99.90;;;;;;5048776;28;20525;-70
2023/09/14 01:20:55;;;;;;;47.22;45.10;;;8.60;99.90;;;;;;5080442;28;20444;-70
2023/09/14 01:24:06;;;;;;;45.40;43.40;;;8.60;99.90;;;;;;5047386;28;20402;-70
2023/09/14 01:26:33;;;;;;;36.35;34.45;;;8.50;99.90;;;;;;5029498;28;20055;-70
2023/09/14 01:29:00;;;;;;;41.25;39.38;;;8.50;99.90;;;;;;5032307;28;20560;-70
2023/09/14 01:31:28;;;;;;;42.85;40.78;;;8.50;99.90;;;;;;5048245;28;20127;-70
2023/09/14 01:33:54;;;;;;;40.63;38.53;;;8.40;99.90;;;;;;5050600;28;20048;-70
2023/09/14 01:36:26;;;;;;;39.90;38.07;;;8.40;99.90;;;;;;5049038;28;20539;-70
2023/09/14 01:38:54;;;;;;;34.42;32.75;;;8.40;99.90;;;;;;5049503;28;20493;-70
2023/09/14 01:41:22;;;;;;;43.28;41.10;;;8.40;99.90;;;;;;5049617;28;20516;-70
2023/09/14 01:43:52;;;;;;;38.90;36.97;;;8.40;99.90;;;;;;5049344;28;20055;-70
2023/09/14 01:46:18;;;;;;;47.30;45.03;;;8.40;99.90;;;;;;5048874;28;20048;-70
2023/09/14 01:48:44;;;;;;;34.50;32.83;;;8.30;99.90;;;;;;5050082;28;20141;-70
2023/09/14 01:51:11;;;;;;;28.15;26.77;;;8.30;99.90;;;;;;5049438;28;20056;-70
2023/09/14 01:53:37;;;;;;;30.15;28.75;;;8.30;99.90;;;;;;5049559;28;20124;-70
2023/09/14 01:56:03;;;;;;;30.08;28.70;;;8.30;99.90;;;;;;5049252;28;20041;-70
2023/09/14 01:58:29;;;;;;;32.00;30.20;;;8.30;99.90;;;;;;5049050;28;20135;-70
2023/09/14 02:00:56;;;;;;;20.67;19.47;;;8.30;99.90;;;;;;5032715;28;20036;-70
2023/09/14 02:03:22;;;;;;;26.40;25.10;;;8.30;99.90;;;;;;5033216;28;20446;-70
2023/09/14 02:06:01;;;;;;;26.15;24.67;;;8.40;99.90;;;;;;5046246;28;20084;-70
2023/09/14 02:08:27;;;;;;;36.55;34.70;;;8.40;99.90;;;;;;5025340;28;20049;-70
2023/09/14 02:10:53;;;;;;;26.98;25.55;;;8.40;99.90;;;;;;5049421;28;20174;-70
2023/09/14 02:13:19;;;;;;;27.30;25.50;;;8.40;99.90;;;;;;5048461;28;20544;-70
2023/09/14 02:15:44;;;;;;;28.60;27.30;;;8.40;99.90;;;;;;5047678;28;20098;-70
2023/09/14 02:18:10;;;;;;;17.20;16.27;;;8.40;99.90;;;;;;5048704;28;20033;-70
2023/09/14 02:20:36;;;;;;;23.63;22.30;;;8.40;99.90;;;;;;5044404;28;20209;-70
2023/09/14 02:23:02;;;;;;;27.67;26.20;;;8.40;99.90;;;;;;5045284;28;20108;-70
2023/09/14 02:25:28;;;;;;;78.20;74.80;;;8.40;99.90;;;;;;5046813;28;20516;-70
2023/09/14 02:27:53;;;;;;;19.87;18.73;;;8.50;99.90;;;;;;5048217;28;20048;-70
2023/09/14 02:30:19;;;;;;;31.83;30.40;;;8.50;99.90;;;;;;5046163;28;20516;-71
2023/09/14 02:32:45;;;;;;;24.70;23.50;;;8.50;99.90;;;;;;5047538;28;20067;-70
2023/09/14 02:35:10;;;;;;;21.03;20.03;;;8.50;99.90;;;;;;5030239;28;20107;-70
2023/09/14 02:37:36;;;;;;;40.93;39.17;;;8.50;99.90;;;;;;5031542;28;20036;-70
2023/09/14 02:40:06;;;;;;;27.13;25.87;;;8.50;99.90;;;;;;5047182;28;20045;-70
2023/09/14 02:42:32;;;;;;;55.17;52.83;;;8.50;99.90;;;;;;5049840;28;20087;-70
2023/09/14 02:44:58;;;;;;;34.38;32.85;;;8.40;99.90;;;;;;5047106;28;20037;-70
2023/09/14 02:47:23;;;;;;;22.37;21.27;;;8.40;99.90;;;;;;5048662;28;20045;-70
2023/09/14 02:49:49;;;;;;;33.20;31.70;;;8.40;99.90;;;;;;5030943;28;20073;-70
2023/09/14 02:52:14;;;;;;;35.27;33.63;;;8.30;99.90;;;;;;5050379;28;20483;-70
2023/09/14 02:54:40;;;;;;;39.73;38.03;;;8.30;99.90;;;;;;5052435;28;20102;-70
2023/09/14 02:57:06;;;;;;;48.10;46.13;;;8.20;99.90;;;;;;5053658;28;20052;-70
2023/09/14 02:59:31;;;;;;;28.43;27.03;;;8.20;99.90;;;;;;5053016;28;20041;-70
2023/09/14 03:01:57;;;;;;;26.63;25.40;;;8.20;99.90;;;;;;5053731;28;20244;-70
2023/09/14 03:04:23;;;;;;;30.73;29.17;;;8.20;99.90;;;;;;5036026;28;20036;-70
2023/09/14 03:06:49;;;;;;;40.63;38.83;;;8.10;99.90;;;;;;5052859;28;20544;-70
2023/09/14 03:09:15;;;;;;;49.92;47.65;;;8.20;99.90;;;;;;5034859;28;20076;-70
2023/09/14 03:11:41;;;;;;;45.03;43.13;;;8.20;99.90;;;;;;5051780;28;20083;-70
2023/09/14 03:14:07;;;;;;;46.50;44.60;;;8.20;99.90;;;;;;5050949;28;20047;-70
2023/09/14 03:16:32;;;;;;;33.07;31.27;;;8.20;99.90;;;;;;5052131;28;20405;-70
2023/09/14 03:18:58;;;;;;;38.50;36.70;;;8.20;99.90;;;;;;5050733;28;20405;-70
2023/09/14 03:21:26;;;;;;;16.30;15.50;;;8.30;99.90;;;;;;5052323;28;20094;-70
2023/09/14 03:23:52;;;;;;;23.63;22.42;;;8.30;99.90;;;;;;5050739;28;20516;-70
2023/09/14 03:26:19;;;;;;;27.58;25.92;;;8.30;99.90;;;;;;5052234;28;20501;-71
2023/09/14 03:28:48;;;;;;;24.75;23.38;;;8.30;99.90;;;;;;5051398;28;20041;-70
2023/09/14 03:31:14;;;;;;;24.08;22.83;;;8.30;99.90;;;;;;5051193;28;20052;-70
2023/09/14 03:33:39;;;;;;;20.27;19.10;;;8.30;99.90;;;;;;5034692;28;20051;-70
2023/09/14 03:36:05;;;;;;;16.00;15.30;;;8.30;99.90;;;;;;5051900;28;20507;-70
2023/09/14 03:38:31;;;;;;;15.27;14.20;;;8.30;99.90;;;;;;5051713;28;20387;-70
2023/09/14 03:40:57;;;;;;;22.00;20.87;;;8.30;99.90;;;;;;5051935;28;20047;-71
2023/09/14 03:43:23;;;;;;;17.07;16.20;;;8.30;99.90;;;;;;5033262;28;20051;-71
2023/09/14 03:45:49;;;;;;;15.83;14.93;;;8.30;99.90;;;;;;5033611;28;20041;-71
2023/09/14 03:48:14;;;;;;;15.40;14.50;;;8.30;99.90;;;;;;5033669;28;20037;-70
2023/09/14 03:50:40;;;;;;;12.53;11.70;;;8.30;99.90;;;;;;5033511;28;20045;-70
2023/09/14 03:53:06;;;;;;;12.73;12.03;;;8.20;99.90;;;;;;5039952;28;20045;-70
2023/09/14 03:55:32;;;;;;;12.77;12.07;;;8.20;99.90;;;;;;5036904;28;20516;-70
2023/09/14 03:57:58;;;;;;;13.32;12.52;;;8.20;99.90;;;;;;5052308;28;20045;-70
2023/09/14 04:00:24;;;;;;;10.17;9.57;;;8.20;99.90;;;;;;5052328;28;20037;-70
2023/09/14 04:02:50;;;;;;;12.17;11.47;;;8.20;99.90;;;;;;5034185;28;20052;-70
2023/09/14 04:05:17;;;;;;;11.40;10.50;;;8.10;99.90;;;;;;5034007;28;20500;-70
2023/09/14 04:07:44;;;;;;;9.00;8.40;;;8.10;99.90;;;;;;5039984;28;20123;-70
2023/09/14 04:10:10;;;;;;;10.57;9.93;;;8.10;99.90;;;;;;5051890;28;20099;-70
2023/09/14 04:12:41;;;;;;;11.85;10.93;;;8.10;99.90;;;;;;5026193;28;20048;-70
2023/09/14 04:15:07;;;;;;;12.50;11.68;;;8.10;99.90;;;;;;5037517;28;20041;-70
2023/09/14 04:17:33;;;;;;;12.63;11.68;;;8.10;99.90;;;;;;5034332;28;20572;-70
2023/09/14 04:20:00;;;;;;;44.53;42.55;;;8.10;99.90;;;;;;5046637;28;20037;-71
2023/09/14 04:22:26;;;;;;;26.88;25.55;;;8.10;99.90;;;;;;5050441;28;20056;-71
2023/09/14 04:24:52;;;;;;;45.10;43.23;;;8.00;99.90;;;;;;5048801;28;20045;-70
2023/09/14 04:27:17;;;;;;;37.77;35.87;;;8.00;99.90;;;;;;5050144;28;20052;-70
2023/09/14 04:29:43;;;;;;;41.00;39.17;;;8.00;99.90;;;;;;5033410;28;20398;-70
2023/09/14 04:32:09;;;;;;;48.55;46.50;;;8.00;99.90;;;;;;5033199;28;20360;-70
2023/09/14 04:34:35;;;;;;;47.70;45.63;;;8.00;99.90;;;;;;5049220;28;20049;-70
2023/09/14 04:37:00;;;;;;;41.63;39.83;;;8.00;99.90;;;;;;5051307;28;20477;-70
2023/09/14 04:39:26;;;;;;;44.67;42.43;;;8.00;99.90;;;;;;5050155;28;20048;-70
2023/09/14 04:41:53;;;;;;;49.10;46.57;;;8.00;99.90;;;;;;5050588;28;20037;-70
2023/09/14 04:44:18;;;;;;;52.83;50.53;;;8.00;99.90;;;;;;5050086;28;20056;-70
2023/09/14 04:46:44;;;;;;;43.57;41.57;;;8.00;99.90;;;;;;5050553;28;20048;-70
2023/09/14 04:49:12;;;;;;;52.73;50.33;;;7.90;99.90;;;;;;5050647;28;20041;-70
2023/09/14 04:51:37;;;;;;;51.58;49.33;;;7.90;99.90;;;;;;5034888;28;20041;-70
2023/09/14 04:54:03;;;;;;;41.87;39.83;;;7.90;99.90;;;;;;5051621;28;20515;-70
2023/09/14 04:56:29;;;;;;;30.80;29.27;;;7.90;99.90;;;;;;5032170;28;20052;-70
2023/09/14 04:58:55;;;;;;;23.23;22.10;;;7.80;99.90;;;;;;5043497;28;20029;-70
2023/09/14 05:01:20;;;;;;;21.67;20.47;;;7.90;99.90;;;;;;5037892;28;20069;-70
2023/09/14 05:03:46;;;;;;;29.80;28.23;;;7.90;99.90;;;;;;5051154;28;20044;-70
2023/09/14 05:06:12;;;;;;;22.53;21.33;;;7.90;99.90;;;;;;5031784;28;20417;-70
2023/09/14 05:08:37;;;;;;;29.57;28.03;;;7.90;99.90;;;;;;5031128;28;20049;-70
2023/09/14 05:11:03;;;;;;;34.47;32.60;;;7.90;99.90;;;;;;5056532;28;20052;-70
2023/09/14 05:13:29;;;;;;;28.87;27.33;;;7.90;99.90;;;;;;5050782;28;20103;-70
2023/09/14 05:15:55;;;;;;;30.50;29.03;;;7.80;99.90;;;;;;5048956;28;20052;-70
2023/09/14 05:18:20;;;;;;;26.70;25.33;;;7.80;99.90;;;;;;5047689;28;20531;-70
2023/09/14 05:20:49;;;;;;;20.83;19.53;;;7.80;99.90;;;;;;5047984;28;20044;-70
2023/09/14 05:23:15;;;;;;;24.00;22.75;;;7.90;99.90;;;;;;5036706;28;20072;-70
2023/09/14 05:25:41;;;;;;;20.47;19.33;;;7.90;99.90;;;;;;5038638;28;20068;-70
2023/09/14 05:28:08;;;;;;;24.48;23.10;;;8.00;99.90;;;;;;5059639;28;20399;-71
2023/09/14 05:30:34;;;;;;;25.90;24.52;;;8.00;99.90;;;;;;5020976;28;20049;-71
2023/09/14 05:33:00;;;;;;;27.42;25.75;;;8.10;99.90;;;;;;5048837;28;20152;-70
2023/09/14 05:35:26;;;;;;;24.15;22.33;;;8.20;99.90;;;;;;5038338;28;20523;-72
2023/09/14 05:37:52;;;;;;;26.37;24.90;;;8.20;99.90;;;;;;5050227;28;20041;-71
2023/09/14 05:40:18;;;;;;;19.58;18.45;;;8.30;99.90;;;;;;5051591;28;20108;-70
2023/09/14 05:42:45;;;;;;;22.08;20.58;;;8.40;99.90;;;;;;5049992;28;20384;-71
2023/09/14 05:45:12;;;;;;;22.25;21.08;;;8.50;99.90;;;;;;5045076;28;20049;-70
2023/09/14 05:47:38;;;;;;;20.20;18.88;;;8.50;99.90;;;;;;5047839;28;20037;-70
2023/09/14 05:50:06;;;;;;;23.20;21.95;;;8.60;99.90;;;;;;5032627;28;20110;-70
2023/09/14 05:52:32;;;;;;;25.80;24.55;;;8.70;99.90;;;;;;5047905;28;20519;-70
2023/09/14 05:54:58;;;;;;;20.90;19.80;;;8.80;99.90;;;;;;5049047;28;20033;-70
2023/09/14 05:57:24;;;;;;;19.67;18.57;;;8.80;99.90;;;;;;5047936;28;20045;-70
2023/09/14 05:59:49;;;;;;;23.20;21.77;;;8.90;99.90;;;;;;5038256;28;20079;-70
2023/09/14 06:02:18;;;;;;;23.37;22.20;;;8.90;99.90;;;;;;5048840;28;20126;-70
2023/09/14 06:04:44;;;;;;;20.88;19.52;;;9.00;99.90;;;;;;5049696;28;20053;-70
2023/09/14 06:07:10;;;;;;;23.33;22.13;;;9.00;99.90;;;;;;5048807;28;20075;-70
2023/09/14 06:09:35;;;;;;;27.87;26.30;;;9.10;99.90;;;;;;5050153;28;20506;-70
2023/09/14 06:12:02;;;;;;;26.20;24.63;;;9.20;99.90;;;;;;5046646;28;20056;-70
2023/09/14 06:14:27;;;;;;;27.40;26.10;;;9.20;99.90;;;;;;5048692;28;20103;-70
2023/09/14 06:16:53;;;;;;;27.93;26.40;;;9.30;99.90;;;;;;5030091;28;20048;-70
2023/09/14 06:19:19;;;;;;;28.07;26.60;;;9.30;99.90;;;;;;5045998;28;20033;-70
2023/09/14 06:21:45;;;;;;;22.40;21.10;;;9.40;99.90;;;;;;5046338;28;20045;-70
2023/09/14 06:24:11;;;;;;;33.20;31.47;;;9.50;99.90;;;;;;5048921;28;20037;-70
2023/09/14 06:26:36;;;;;;;35.27;33.10;;;9.60;99.90;;;;;;5044526;28;20044;-70
2023/09/14 06:29:02;;;;;;;27.17;25.40;;;9.60;99.90;;;;;;5048338;28;20037;-70
2023/09/14 06:31:28;;;;;;;29.90;28.23;;;9.70;99.90;;;;;;5031166;28;20037;-70
2023/09/14 06:33:53;;;;;;;25.60;24.03;;;9.80;99.90;;;;;;5049846;28;20057;-70
2023/09/14 06:36:19;;;;;;;23.43;22.07;;;9.90;99.90;;;;;;5033319;28;20029;-70
2023/09/14 06:38:46;;;;;;;24.53;23.17;;;9.90;99.90;;;;;;5050181;28;20036;-70
2023/09/14 06:41:12;;;;;;;28.05;26.42;;;10.00;99.90;;;;;;5049032;28;20453;-71
2023/09/14 06:43:45;;;;;;;26.33;24.83;;;10.10;99.90;;;;;;5049822;28;20049;-71
2023/09/14 06:46:11;;;;;;;28.20;26.43;;;10.20;99.90;;;;;;5031732;28;20294;-71
2023/09/14 06:48:38;;;;;;;31.83;29.80;;;10.40;99.90;;;;;;5049143;28;20366;-71
2023/09/14 06:51:04;;;;;;;25.70;24.13;;;10.50;99.90;;;;;;5049828;28;20762;-71
2023/09/14 06:53:31;;;;;;;28.70;26.77;;;10.60;99.90;;;;;;5049965;28;20830;-71
2023/09/14 06:55:56;;;;;;;30.57;28.90;;;10.70;99.90;;;;;;5016347;28;20287;-71
2023/09/14 06:58:22;;;;;;;29.63;27.80;;;10.80;99.90;;;;;;5029923;28;20311;-71
2023/09/14 07:00:48;;;;;;;28.33;26.90;;;11.00;99.90;;;;;;5064581;28;20043;-71
2023/09/14 07:03:13;;;;;;;33.47;31.57;;;11.10;99.90;;;;;;5036388;28;20542;-71
2023/09/14 07:05:39;;;;;;;32.10;30.33;;;11.20;99.90;;;;;;5044140;28;20044;-71
2023/09/14 07:08:05;;;;;;;36.30;34.23;;;11.30;99.90;;;;;;5042484;28;20044;-71
2023/09/14 07:10:31;;;;;;;39.20;37.10;;;11.40;99.90;;;;;;5043495;28;20076;-71
2023/09/14 07:12:56;;;;;;;39.17;37.20;;;11.50;99.90;;;;;;5039177;28;20067;-71
2023/09/14 07:15:22;;;;;;;31.27;29.43;;;11.60;99.90;;;;;;5045279;28;20124;-71
2023/09/14 07:17:48;;;;;;;30.10;28.40;;;11.80;99.90;;;;;;5046053;28;20036;-71
2023/09/14 07:20:14;;;;;;;30.87;29.13;;;12.00;99.90;;;;;;5044526;28;20417;-71
2023/09/14 07:22:39;;;;;;;26.63;24.83;;;12.20;99.90;;;;;;5046198;28;20111;-71
2023/09/14 07:25:06;;;;;;;30.03;28.00;;;12.30;99.90;;;;;;5043471;28;20111;-71
2023/09/14 07:27:32;;;;;;;29.50;27.90;;;12.50;99.90;;;;;;5039857;28;20053;-71
2023/09/14 07:29:57;;;;;;;29.00;27.07;;;12.70;99.90;;;;;;5033036;28;20284;-71
2023/09/14 07:32:23;;;;;;;30.13;28.53;;;12.90;99.90;;;;;;5024860;28;20876;-71
2023/09/14 07:34:49;;;;;;;30.90;28.90;;;13.00;99.90;;;;;;5043913;28;20049;-71
2023/09/14 07:37:15;;;;;;;31.40;29.30;;;13.20;99.90;;;;;;5042629;28;20068;-71
2023/09/14 07:39:40;;;;;;;30.43;28.73;;;13.30;99.90;;;;;;5043722;28;20037;-71
2023/09/14 07:42:06;;;;;;;31.60;29.90;;;13.50;99.90;;;;;;5050250;28;20130;-71
2023/09/14 07:44:32;;;;;;;32.97;31.17;;;13.60;99.90;;;;;;5047085;28;20110;-71
2023/09/14 07:46:57;;;;;;;29.97;28.07;;;13.80;99.90;;;;;;5039591;28;20455;-71
2023/09/14 07:49:23;;;;;;;35.43;33.47;;;14.00;99.90;;;;;;5032925;28;20053;-71
2023/09/14 07:51:49;;;;;;;27.80;26.10;;;14.20;99.90;;;;;;5049549;28;20485;-71
2023/09/14 07:54:16;;;;;;;38.43;36.10;;;14.40;99.50;;;;;;5046694;28;20529;-72
2023/09/14 07:56:43;;;;;;;44.57;41.93;;;14.50;98.80;;;;;;5045516;28;20056;-71
2023/09/14 07:59:08;;;;;;;37.17;35.10;;;14.70;97.70;;;;;;5027288;28;20276;-71
2023/09/14 08:01:35;;;;;;;38.97;36.70;;;14.80;96.70;;;;;;5030439;28;20389;-71
2023/09/14 08:04:03;;;;;;;53.43;50.17;;;14.90;95.20;;;;;;5032404;28;20056;-71
2023/09/14 08:06:28;;;;;;;41.63;39.23;;;15.00;95.50;;;;;;5049734;28;20311;-71
2023/09/14 08:08:55;;;;;;;59.27;55.93;;;15.00;95.40;;;;;;5036134;28;20334;-71
2023/09/14 08:11:21;;;;;;;47.27;44.67;;;15.00;95.50;;;;;;5069116;28;20490;-71
2023/09/14 08:13:46;;;;;;;50.50;47.73;;;15.10;94.30;;;;;;5049496;28;20311;-71
2023/09/14 08:16:12;;;;;;;54.50;51.37;;;15.10;94.80;;;;;;5052115;28;20275;-71
2023/09/14 08:18:38;;;;;;;51.97;49.00;;;15.20;94.00;;;;;;5049248;28;20044;-71
2023/09/14 08:21:03;;;;;;;88.63;83.43;;;15.30;94.40;;;;;;5050332;28;20052;-71
2023/09/14 08:23:29;;;;;;;72.60;68.50;;;15.50;94.70;;;;;;5048926;28;20094;-71
2023/09/14 08:25:55;;;;;;;71.57;67.37;;;15.60;93.60;;;;;;5051132;28;20052;-71
2023/09/14 08:28:21;;;;;;;95.50;90.00;;;15.80;92.10;;;;;;5049863;28;20536;-71
2023/09/14 08:30:48;;;;;;;27.60;25.70;;;15.90;91.10;;;;;;5050791;28;20048;-71
2023/09/14 08:33:15;;;;;;;40.07;37.63;;;16.00;91.00;;;;;;5049938;28;20085;-71
2023/09/14 08:35:44;;;;;;;42.60;40.27;;;16.10;90.20;;;;;;5050612;28;20279;-71
2023/09/14 08:38:11;;;;;;;38.73;36.20;;;16.10;87.40;;;;;;5053572;28;20617;-71
2023/09/14 08:40:38;;;;;;;52.93;49.60;;;16.20;90.10;;;;;;5050695;28;20287;-71
2023/09/14 08:43:10;;;;;;;43.80;41.20;;;16.40;89.80;;;;;;5049527;28;20295;-71
2023/09/14 08:45:37;;;;;;;58.57;55.27;;;16.50;90.40;;;;;;5048618;28;20771;-71
2023/09/14 08:48:05;;;;;;;76.00;71.33;;;16.60;90.20;;;;;;5025441;28;20287;-71
2023/09/14 08:50:32;;;;;;;79.87;75.10;;;16.80;88.70;;;;;;5049772;28;20667;-71
2023/09/14 08:52:59;;;;;;;77.63;73.07;;;16.90;88.80;;;;;;5046749;28;20300;-71
2023/09/14 08:55:33;;;;;;;83.57;78.43;;;17.00;87.20;;;;;;5045947;28;20282;-71
2023/09/14 08:57:59;;;;;;;74.87;70.07;;;17.10;87.50;;;;;;5040917;28;20288;-71
2023/09/14 09:00:28;;;;;;;66.13;62.20;;;17.20;87.40;;;;;;5047481;28;20283;-71
2023/09/14 09:02:55;;;;;;;78.03;73.50;;;17.30;87.00;;;;;;5048316;28;20330;-71
2023/09/14 09:05:22;;;;;;;89.40;83.60;;;17.40;86.80;;;;;;5041163;28;20283;-71
2023/09/14 09:07:48;;;;;;;75.97;71.37;;;17.60;86.30;;;;;;5068992;28;20283;-71
2023/09/14 09:10:25;;;;;;;86.63;81.60;;;17.70;85.60;;;;;;5045530;28;20279;-71
2023/09/14 09:13:02;;;;;;;72.93;68.23;;;17.80;84.70;;;;;;5043765;28;20307;-71
2023/09/14 09:15:28;;;;;;;81.97;77.13;;;17.90;83.30;;;;;;5044829;28;20290;-72
2023/09/14 09:17:55;;;;;;;90.33;84.73;;;18.10;81.40;;;;;;5047605;28;20037;-72
2023/09/14 09:20:22;;;;;;;90.57;84.90;;;18.20;83.10;;;;;;5043046;28;20026;-72
2023/09/14 09:22:54;;;;;;;89.07;83.67;;;18.30;81.00;;;;;;5076846;28;20041;-73
2023/09/14 09:25:21;;;;;;;81.47;76.50;;;18.30;80.80;;;;;;5028700;28;20047;-73
2023/09/14 09:27:56;;;;;;;83.80;78.20;;;18.30;80.60;;;;;;5046787;28;20049;-73
2023/09/14 09:30:28;;;;;;;79.32;74.80;;;18.50;82.40;;;;;;5046449;28;20044;-73
2023/09/14 09:32:55;;;;;;;74.50;70.37;;;18.60;79.90;;;;;;5044527;28;20128;-73
2023/09/14 09:35:26;;;;;;;77.77;72.97;;;18.60;77.70;;;;;;5046119;28;20036;-72
2023/09/14 09:37:54;;;;;;;70.93;66.93;;;18.60;76.60;;;;;;5045061;28;20040;-73
2023/09/14 09:40:22;;;;;;;79.83;75.00;;;18.50;76.70;;;;;;5064768;28;20041;-73
2023/09/14 09:42:48;;;;;;;72.60;68.60;;;18.40;77.40;;;;;;5027571;28;20047;-72
2023/09/14 09:45:14;;;;;;;82.50;77.77;;;18.40;78.10;;;;;;5046729;28;20041;-72
2023/09/14 09:47:41;;;;;;;70.30;66.20;;;18.50;78.80;;;;;;5041740;28;20041;-72
2023/09/14 09:50:09;;;;;;;70.13;66.23;;;18.70;78.70;;;;;;5044793;28;20040;-72
2023/09/14 09:52:36;;;;;;;76.73;72.40;;;18.80;75.40;;;;;;5043805;28;20125;-73
2023/09/14 09:55:04;;;;;;;75.53;71.37;;;18.90;76.20;;;;;;5044270;28;20045;-73
2023/09/14 09:57:32;;;;;;;75.47;71.47;;;19.00;74.50;;;;;;5046457;28;20041;-73
2023/09/14 09:59:58;;;;;;;85.33;80.20;;;18.90;74.40;;;;;;5043134;28;20063;-73
2023/09/14 10:02:29;;;;;;;92.67;87.50;;;18.90;75.90;;;;;;5067196;28;20406;-73
2023/09/14 10:04:55;;;;;;;80.87;76.27;;;18.90;76.20;;;;;;5042529;28;20221;-73
2023/09/14 10:07:24;;;;;;;78.83;74.47;;;18.80;76.50;;;;;;5043143;28;20161;-73
2023/09/14 10:09:53;;;;;;;69.90;65.93;;;18.70;74.50;;;;;;5027757;28;20669;-73
2023/09/14 10:12:24;;;;;;;75.93;71.70;;;18.60;76.30;;;;;;5040814;28;20135;-73
2023/09/14 10:15:04;;;;;;;68.83;65.13;;;18.50;75.50;;;;;;5027399;28;20052;-73
2023/09/14 10:17:31;;;;;;;69.07;65.10;;;18.50;77.90;;;;;;5069522;28;20040;-73
2023/09/14 10:19:58;;;;;;;70.80;66.77;;;18.50;76.90;;;;;;5025404;28;20433;-73
2023/09/14 10:22:25;;;;;;;70.20;66.50;;;18.60;77.00;;;;;;5045036;28;20041;-73
2023/09/14 10:24:51;;;;;;;77.03;72.63;;;18.70;76.90;;;;;;5042801;28;20045;-73
2023/09/14 10:27:17;;;;;;;61.93;58.43;;;18.80;75.70;;;;;;5043654;28;20040;-73
2023/09/14 10:29:44;;;;;;;71.27;67.30;;;18.70;73.90;;;;;;5037387;28;20122;-73
2023/09/14 10:32:14;;;;;;;68.90;64.93;;;18.60;74.90;;;;;;5048638;28;20053;-73
2023/09/14 10:34:41;;;;;;;65.53;61.77;;;18.50;74.50;;;;;;5048196;28;20046;-73
2023/09/14 10:37:10;;;;;;;68.07;64.17;;;18.50;75.90;;;;;;5046961;28;20096;-73
2023/09/14 10:39:37;;;;;;;63.13;59.60;;;18.50;75.60;;;;;;5048173;28;20056;-73
2023/09/14 10:42:06;;;;;;;51.83;48.93;;;18.60;75.90;;;;;;5048818;28;20380;-73
2023/09/14 10:44:33;;;;;;;65.90;62.17;;;18.70;76.30;;;;;;5026375;28;20047;-73
2023/09/14 10:47:01;;;;;;;60.60;56.97;;;18.90;72.80;;;;;;5046894;28;20033;-73
2023/09/14 10:49:33;;;;;;;79.50;74.90;;;19.00;73.70;;;;;;5048834;28;20413;-73
2023/09/14 10:52:00;;;;;;;67.00;63.17;;;19.20;74.60;;;;;;5047395;28;20049;-74
2023/09/14 10:54:29;;;;;;;58.83;55.40;;;19.30;72.00;;;;;;5046536;28;20552;-73
2023/09/14 10:57:00;;;;;;;63.60;59.97;;;19.30;73.40;;;;;;5041289;28;20044;-73
2023/09/14 10:59:52;;;;;;;65.47;61.57;;;19.50;72.60;;;;;;5044313;28;20040;-73
2023/09/14 11:02:36;;;;;;;63.67;60.20;;;19.60;72.20;;;;;;5045788;28;20040;-73
2023/09/14 11:05:23;;;;;;;41.40;38.90;;;19.80;72.90;;;;;;5043908;28;20095;-73
2023/09/14 11:07:57;;;;;;;60.27;56.83;;;19.90;71.10;;;;;;5082196;28;20052;-73
2023/09/14 11:10:23;;;;;;;56.30;53.17;;;19.70;73.50;;;;;;5076427;28;20501;-73
2023/09/14 11:12:49;;;;;;;68.20;64.40;;;19.70;72.40;;;;;;5027751;28;20037;-73
2023/09/14 11:15:20;;;;;;;72.63;68.10;;;19.80;72.40;;;;;;5060752;28;21772;-73
2023/09/14 11:17:47;;;;;;;63.20;59.23;;;20.00;72.10;;;;;;5047882;28;20094;-73
2023/09/14 11:20:19;;;;;;;62.13;58.47;;;20.10;68.70;;;;;;5045943;28;20052;-73
2023/09/14 11:22:49;;;;;;;58.17;54.87;;;20.10;69.10;;;;;;5052420;28;20156;-73
2023/09/14 11:25:33;;;;;;;69.47;65.57;;;20.10;72.00;;;;;;5048753;28;20106;-73
2023/09/14 11:28:00;;;;;;;53.97;50.40;;;20.30;71.00;;;;;;5050327;28;20091;-73
2023/09/14 11:30:27;;;;;;;69.67;65.57;;;20.50;70.70;;;;;;5026261;28;20053;-73
2023/09/14 11:32:54;;;;;;;63.80;60.13;;;20.60;70.30;;;;;;5044676;28;20081;-73
2023/09/14 11:35:53;;;;;;;66.10;62.47;;;20.60;69.00;;;;;;5043266;28;20033;-73
2023/09/14 11:38:26;;;;;;;65.77;62.00;;;20.70;68.50;;;;;;5012863;28;20124;-74
2023/09/14 11:40:53;;;;;;;72.57;67.80;;;20.70;69.40;;;;;;5042743;28;20048;-73
2023/09/14 11:45:51;;;;;;;66.40;62.53;;;20.70;69.30;;;;;;5048322;28;20053;-73
2023/09/14 11:48:20;;;;;;;88.23;83.50;;;20.80;69.30;;;;;;5044601;28;20077;-73
2023/09/14 11:50:47;;;;;;;88.13;83.07;;;20.80;67.40;;;;;;5044112;28;20156;-73
2023/09/14 11:53:19;;;;;;;85.43;80.57;;;20.90;66.90;;;;;;5048317;28;20067;-73
2023/09/14 11:55:46;;;;;;;98.73;93.13;;;20.80;65.70;;;;;;5063096;28;20072;-72
2023/09/14 11:58:13;;;;;;;72.93;68.97;;;20.80;66.60;;;;;;5042187;28;20055;-74
2023/09/14 12:00:42;;;;;;;71.30;67.37;;;20.80;67.20;;;;;;5038718;28;20076;-73
2023/09/14 12:03:08;;;;;;;86.03;81.50;;;20.80;67.30;;;;;;5047370;28;20165;-73
2023/09/14 12:05:35;;;;;;;87.83;83.03;;;20.90;68.30;;;;;;5038065;28;20053;-73
2023/09/14 12:08:17;;;;;;;87.20;82.33;;;21.00;68.90;;;;;;5046483;28;20140;-73
2023/09/14 12:10:45;;;;;;;91.30;86.43;;;21.10;67.80;;;;;;5040350;28;20048;-73
2023/09/14 12:13:12;;;;;;;107.70;102.07;;;21.20;68.80;;;;;;5023061;28;20045;-73
2023/09/14 12:15:38;;;;;;;85.33;80.53;;;21.20;64.00;;;;;;5041914;28;20124;-73
2023/09/14 12:18:04;;;;;;;95.90;90.47;;;21.00;64.90;;;;;;5042736;28;20048;-73
2023/09/14 12:20:34;;;;;;;87.20;82.67;;;20.90;66.70;;;;;;5041875;28;20135;-73
2023/09/14 12:23:01;;;;;;;94.10;88.60;;;20.90;65.60;;;;;;5042246;28;20110;-73
2023/09/14 12:25:27;;;;;;;85.10;80.60;;;20.70;67.20;;;;;;5041498;28;20469;-73
2023/09/14 12:27:54;;;;;;;64.43;60.83;;;20.50;68.40;;;;;;5040466;28;20049;-73
2023/09/14 12:30:20;;;;;;;78.40;74.23;;;20.40;66.60;;;;;;5037988;28;20559;-72
2023/09/14 12:32:45;;;;;;;58.73;55.63;;;20.20;66.00;;;;;;5052072;28;20061;-73
2023/09/14 12:35:11;;;;;;;94.30;89.23;;;20.10;67.30;;;;;;5040903;28;20063;-72
2023/09/14 12:37:38;;;;;;;91.50;86.33;;;20.00;67.50;;;;;;5036583;28;20493;-73